Time;durP1;ratioP1;P1;durP2;ratioP2;P2;SDS_P1;SDS_P2;PMS_P1;PMS_P2;Temp;Humidity;BMP_temperature;BMP_pressure;BME280_temperature;BME280_humidity;BME280_pressure;Samples;Min_cycle;Max_cycle;Signal;HPM_P1;HPM_P2
2022/06/25 00:00:35;;;;;;;;;;;;;;;;;;6242600;28;20003;-81
2022/06/25 00:03:35;;;;;;;;;;;;;;;;;;6237984;28;20378;-81
2022/06/25 00:06:36;;;;;;;;;;;;;;;;;;6242444;28;19971;-81
2022/06/25 00:09:36;;;;;;;;;;;;;;;;;;6241486;28;19987;-81
2022/06/25 00:12:36;;;;;;;;;;;;;;;;;;6224539;28;20046;-80
2022/06/25 00:15:36;;;;;;;;;;;;;;;;;;6240398;28;20515;-81
2022/06/25 00:18:36;;;;;;;;;;;;;;;;;;6243305;28;19954;-81
2022/06/25 00:21:36;;;;;;;;;;;;;;;;;;6225546;28;19913;-81
2022/06/25 00:24:36;;;;;;;;;;;;;;;;;;6239918;28;20369;-81
2022/06/25 00:27:36;;;;;;;;;;;;;;;;;;6240779;28;19979;-81
2022/06/25 00:30:37;;;;;;;;;;;;;;;;;;6241910;28;20445;-80
2022/06/25 00:33:37;;;;;;;;;;;;;;;;;;6240156;28;19909;-80
2022/06/25 00:36:37;;;;;;;;;;;;;;;;;;6240441;28;19909;-80
2022/06/25 00:39:38;;;;;;;;;;;;;;;;;;6224702;28;19971;-81
2022/06/25 00:42:38;;;;;;;;;;;;;;;;;;6241551;28;20359;-81
2022/06/25 00:45:38;;;;;;;;;;;;;;;;;;6243071;28;20453;-81
2022/06/25 00:48:38;;;;;;;;;;;;;;;;;;6237259;28;19909;-80
2022/06/25 00:51:38;;;;;;;;;;;;;;;;;;6241059;28;19954;-80
2022/06/25 00:54:38;;;;;;;;;;;;;;;;;;6244147;28;19909;-80
2022/06/25 00:57:38;;;;;;;;;;;;;;;;;;6244640;28;19960;-81
2022/06/25 01:00:38;;;;;;;;;;;;;;;;;;6232520;28;19913;-81
2022/06/25 01:03:39;;;;;;;;;;;;;;;;;;6239100;28;19955;-81
2022/06/25 01:06:39;;;;;;;;;;;;;;;;;;6241803;28;19909;-81
2022/06/25 01:09:40;;;;;;;;;;;;;;;;;;6240697;28;19963;-80
2022/06/25 01:12:40;;;;;;;;;;;;;;;;;;6228623;28;20118;-81
2022/06/25 01:15:40;;;;;;;;;;;;;;;;;;6248412;28;20309;-81
2022/06/25 01:18:40;;;;;;;;;;;;;;;;;;6245130;28;20218;-80
2022/06/25 01:21:42;;;;;;;;;;;;;;;;;;6245125;28;19914;-81
2022/06/25 01:24:42;;;;;;;;;;;;;;;;;;6245008;28;20403;-80
2022/06/25 01:27:42;;;;;;;;;;;;;;;;;;6246171;28;19913;-80
2022/06/25 01:30:42;;;;;;;;;;;;;;;;;;6247963;28;19909;-81
2022/06/25 01:33:42;;;;;;;;;;;;;;;;;;6246038;28;20553;-81
2022/06/25 01:36:43;;;;;;;;;;;;;;;;;;6227844;28;19909;-80
2022/06/25 01:39:43;;;;;;;;;;;;;;;;;;6231317;28;20262;-81
2022/06/25 01:42:58;;;;;;;;;;;;;;;;;;6244548;28;19921;-81
2022/06/25 01:45:58;;;;;;;;;;;;;;;;;;6244874;28;20324;-81
2022/06/25 01:48:58;;;;;;;;;;;;;;;;;;6241883;28;19909;-81
2022/06/25 01:51:59;;;;;;;;;;;;;;;;;;6242676;28;20435;-81
2022/06/25 01:54:59;;;;;;;;;;;;;;;;;;6255623;28;19916;-82
2022/06/25 01:57:59;;;;;;;;;;;;;;;;;;6252581;28;20017;-81
2022/06/25 02:00:59;;;;;;;;;;;;;;;;;;6251381;28;19905;-81
2022/06/25 02:03:59;;;;;;;;;;;;;;;;;;6251808;28;19913;-82
2022/06/25 02:06:59;;;;;;;;;;;;;;;;;;6249728;28;19913;-82
2022/06/25 02:09:59;;;;;;;;;;;;;;;;;;6260129;28;19914;-82
2022/06/25 02:12:59;;;;;;;;;;;;;;;;;;6244338;28;19916;-83
2022/06/25 02:16:00;;;;;;;;;;;;;;;;;;6251709;28;20757;-82
2022/06/25 02:19:00;;;;;;;;;;;;;;;;;;6248325;28;19909;-83
2022/06/25 02:22:00;;;;;;;;;;;;;;;;;;6247092;28;20272;-82
2022/06/25 02:25:00;;;;;;;;;;;;;;;;;;6247989;28;20552;-82
2022/06/25 02:28:00;;;;;;;;;;;;;;;;;;6247108;28;20001;-82
2022/06/25 02:31:01;;;;;;;;;;;;;;;;;;6247492;28;20585;-82
2022/06/25 02:34:01;;;;;;;;;;;;;;;;;;6232270;28;19919;-82
2022/06/25 02:37:02;;;;;;;;;;;;;;;;;;6248570;28;19984;-82
2022/06/25 02:40:03;;;;;;;;;;;;;;;;;;6249177;28;19905;-82
2022/06/25 02:43:04;;;;;;;;;;;;;;;;;;6237772;28;19928;-83
2022/06/25 02:46:04;;;;;;;;;;;;;;;;;;6252819;28;19909;-82
2022/06/25 02:49:04;;;;;;;;;;;;;;;;;;6263816;28;19908;-82
2022/06/25 02:52:04;;;;;;;;;;;;;;;;;;6244211;28;20335;-82
2022/06/25 02:55:04;;;;;;;;;;;;;;;;;;6244657;28;20553;-82
2022/06/25 03:01:23;;;;;;;;;;;;;;;;;;6243856;28;19921;-82
2022/06/25 03:04:24;;;;;;;;;;;;;;;;;;6243984;28;19971;-82
2022/06/25 03:07:24;;;;;;;;;;;;;;;;;;6242702;28;20367;-82
2022/06/25 03:10:24;;;;;;;;;;;;;;;;;;6242378;28;19913;-82
2022/06/25 03:13:24;;;;;;;;;;;;;;;;;;6225560;28;19909;-82
2022/06/25 03:16:25;;;;;;;;;;;;;;;;;;6241712;28;19921;-83
2022/06/25 03:19:25;;;;;;;;;;;;;;;;;;6242141;28;19909;-82
2022/06/25 03:22:25;;;;;;;;;;;;;;;;;;6242788;28;19996;-82
2022/06/25 03:25:25;;;;;;;;;;;;;;;;;;6243278;28;20289;-81
2022/06/25 03:28:25;;;;;;;;;;;;;;;;;;6243952;28;20156;-80
2022/06/25 03:31:25;;;;;;;;;;;;;;;;;;6245957;28;19916;-81
2022/06/25 03:34:25;;;;;;;;;;;;;;;;;;6226493;28;20012;-82
2022/06/25 03:37:26;;;;;;;;;;;;;;;;;;6243718;28;19909;-82
2022/06/25 03:40:26;;;;;;;;;;;;;;;;;;6243440;28;19960;-82
2022/06/25 03:43:26;;;;;;;;;;;;;;;;;;6243738;28;19917;-82
2022/06/25 03:46:26;;;;;;;;;;;;;;;;;;6243965;28;19974;-82
2022/06/25 03:49:26;;;;;;;;;;;;;;;;;;6243923;28;19913;-82
2022/06/25 03:52:26;;;;;;;;;;;;;;;;;;6242108;28;20007;-82
2022/06/25 03:55:26;;;;;;;;;;;;;;;;;;6244783;28;19909;-83
2022/06/25 03:58:26;;;;;;;;;;;;;;;;;;6243821;28;19913;-82
2022/06/25 04:01:27;;;;;;;;;;;;;;;;;;6231454;28;19959;-82
2022/06/25 04:04:28;;;;;;;;;;;;;;;;;;6226538;28;20416;-82
2022/06/25 04:07:28;;;;;;;;;;;;;;;;;;6242186;28;19909;-82
2022/06/25 04:10:28;;;;;;;;;;;;;;;;;;6242518;28;19909;-82
2022/06/25 04:13:28;;;;;;;;;;;;;;;;;;6241449;28;20329;-82
2022/06/25 04:16:28;;;;;;;;;;;;;;;;;;6243631;28;19944;-82
2022/06/25 04:19:28;;;;;;;;;;;;;;;;;;6241329;28;19909;-81
2022/06/25 04:22:28;;;;;;;;;;;;;;;;;;6242491;28;19971;-81
2022/06/25 04:25:29;;;;;;;;;;;;;;;;;;6231584;28;19913;-82
2022/06/25 04:31:47;;;;;;;;;;;;;;;;;;6239444;28;19909;-82
2022/06/25 04:34:48;;;;;;;;;;;;;;;;;;6241620;28;20022;-81
2022/06/25 04:37:48;;;;;;;;;;;;;;;;;;6242557;28;19975;-82
2022/06/25 04:40:48;;;;;;;;;;;;;;;;;;6243242;28;19931;-82
2022/06/25 04:43:48;;;;;;;;;;;;;;;;;;6242595;28;20360;-82
2022/06/25 04:46:48;;;;;;;;;;;;;;;;;;6247244;28;20557;-81
2022/06/25 04:49:49;;;;;;;;;;;;;;;;;;6246642;28;19948;-82
2022/06/25 04:52:49;;;;;;;;;;;;;;;;;;6245696;28;19924;-82
2022/06/25 04:55:49;;;;;;;;;;;;;;;;;;6246678;28;19971;-82
2022/06/25 04:58:50;;;;;;;;;;;;;;;;;;6249293;28;19913;-81
2022/06/25 05:01:50;;;;;;;;;;;;;;;;;;6248043;28;19971;-82
2022/06/25 05:04:50;;;;;;;;;;;;;;;;;;6247974;28;19921;-82
2022/06/25 05:07:50;;;;;;;;;;;;;;;;;;6244914;28;19909;-82
2022/06/25 05:10:50;;;;;;;;;;;;;;;;;;6246588;28;19909;-82
2022/06/25 05:13:50;;;;;;;;;;;;;;;;;;6248532;28;20375;-82
2022/06/25 05:16:50;;;;;;;;;;;;;;;;;;6240716;28;19925;-82
2022/06/25 05:19:50;;;;;;;;;;;;;;;;;;6217994;28;19987;-82
2022/06/25 05:22:50;;;;;;;;;;;;;;;;;;6218748;28;19924;-82
2022/06/25 05:25:51;;;;;;;;;;;;;;;;;;6239228;28;19924;-81
2022/06/25 05:28:51;;;;;;;;;;;;;;;;;;6222305;28;19924;-82
2022/06/25 05:31:51;;;;;;;;;;;;;;;;;;6225795;28;20000;-82
2022/06/25 05:34:51;;;;;;;;;;;;;;;;;;6225076;28;19944;-82
2022/06/25 05:37:51;;;;;;;;;;;;;;;;;;6225390;28;19913;-82
2022/06/25 05:40:51;;;;;;;;;;;;;;;;;;6219104;28;20371;-82
2022/06/25 05:43:52;;;;;;;;;;;;;;;;;;6231079;28;19977;-82
2022/06/25 05:46:52;;;;;;;;;;;;;;;;;;6216832;28;19918;-82
2022/06/25 05:49:52;;;;;;;;;;;;;;;;;;6216381;28;19929;-82
2022/06/25 05:52:53;;;;;;;;;;;;;;;;;;6216592;28;19925;-82
2022/06/25 05:55:53;;;;;;;;;;;;;;;;;;6224647;28;20531;-81
2022/06/25 05:58:55;;;;;;;;;;;;;;;;;;6218750;28;20233;-82
2022/06/25 06:01:56;;;;;;;;;;;;;;;;;;6225636;28;19914;-83
2022/06/25 06:04:56;;;;;;;;;;;;;;;;;;6214895;28;19914;-82
2022/06/25 06:07:56;;;;;;;;;;;;;;;;;;6237110;28;19921;-83
2022/06/25 06:10:56;;;;;;;;;;;;;;;;;;6221666;28;20004;-83
2022/06/25 06:13:56;;;;;;;;;;;;;;;;;;6217928;28;19914;-82
2022/06/25 06:16:56;;;;;;;;;;;;;;;;;;6240609;28;20451;-82
2022/06/25 06:19:56;;;;;;;;;;;;;;;;;;6235425;28;19948;-82
2022/06/25 06:22:57;;;;;;;;;;;;;;;;;;6247968;28;20568;-82
2022/06/25 06:25:57;;;;;;;;;;;;;;;;;;6236012;28;19924;-82
2022/06/25 06:28:57;;;;;;;;;;;;;;;;;;6237515;28;19923;-82
2022/06/25 06:31:57;;;;;;;;;;;;;;;;;;6244367;28;19916;-82
2022/06/25 06:34:57;;;;;;;;;;;;;;;;;;6247064;28;19913;-83
2022/06/25 06:37:57;;;;;;;;;;;;;;;;;;6232242;28;19910;-83
2022/06/25 06:40:57;;;;;;;;;;;;;;;;;;6249712;28;19916;-82
2022/06/25 06:43:57;;;;;;;;;;;;;;;;;;6245039;28;19917;-82
2022/06/25 06:46:58;;;;;;;;;;;;;;;;;;6249566;28;19909;-82
2022/06/25 06:49:58;;;;;;;;;;;;;;;;;;6248594;28;19913;-83
2022/06/25 06:52:58;;;;;;;;;;;;;;;;;;6237532;28;19951;-83
2022/06/25 06:55:59;;;;;;;;;;;;;;;;;;6233319;28;19909;-82
2022/06/25 06:58:59;;;;;;;;;;;;;;;;;;6255571;28;20413;-83
2022/06/25 07:01:59;;;;;;;;;;;;;;;;;;6255344;28;20012;-82
2022/06/25 07:05:00;;;;;;;;;;;;;;;;;;6252688;28;19917;-82
2022/06/25 07:08:00;;;;;;;;;;;;;;;;;;6235879;28;19917;-82
2022/06/25 07:11:00;;;;;;;;;;;;;;;;;;6250576;28;19952;-82
2022/06/25 07:14:00;;;;;;;;;;;;;;;;;;6248614;28;19967;-82
2022/06/25 07:17:00;;;;;;;;;;;;;;;;;;6248942;28;19917;-82
2022/06/25 07:20:00;;;;;;;;;;;;;;;;;;6251632;28;20000;-83
2022/06/25 07:23:00;;;;;;;;;;;;;;;;;;6246883;28;19948;-82
2022/06/25 07:26:00;;;;;;;;;;;;;;;;;;6254354;28;19909;-82
2022/06/25 07:29:01;;;;;;;;;;;;;;;;;;6252065;28;20000;-83
2022/06/25 07:32:01;;;;;;;;;;;;;;;;;;6243348;28;19913;-82
2022/06/25 07:35:01;;;;;;;;;;;;;;;;;;6247899;28;19910;-82
2022/06/25 07:38:01;;;;;;;;;;;;;;;;;;6253924;28;19909;-82
2022/06/25 07:41:01;;;;;;;;;;;;;;;;;;6252351;28;19952;-83
2022/06/25 07:44:02;;;;;;;;;;;;;;;;;;6247983;28;20004;-83
2022/06/25 07:47:02;;;;;;;;;;;;;;;;;;6253157;28;20003;-83
2022/06/25 07:53:21;;;;;;;;;;;;;;;;;;6248242;28;19910;-83
2022/06/25 07:56:22;;;;;;;;;;;;;;;;;;6247663;28;19951;-84
2022/06/25 07:59:22;;;;;;;;;;;;;;;;;;6252064;28;19921;-83
2022/06/25 08:02:22;;;;;;;;;;;;;;;;;;6236549;28;19913;-83
2022/06/25 08:05:22;;;;;;;;;;;;;;;;;;6244757;28;20004;-83
2022/06/25 08:08:23;;;;;;;;;;;;;;;;;;6251670;28;19917;-83
2022/06/25 08:11:23;;;;;;;;;;;;;;;;;;6244308;28;19909;-83
2022/06/25 08:14:23;;;;;;;;;;;;;;;;;;6240504;28;19917;-83
2022/06/25 08:17:23;;;;;;;;;;;;;;;;;;6244722;28;20004;-83
2022/06/25 08:20:23;;;;;;;;;;;;;;;;;;6242449;28;20734;-83
2022/06/25 08:23:23;;;;;;;;;;;;;;;;;;6252227;28;20035;-82
2022/06/25 08:26:23;;;;;;;;;;;;;;;;;;6237066;28;19924;-82
2022/06/25 08:29:24;;;;;;;;;;;;;;;;;;6237760;28;19967;-83
2022/06/25 08:32:24;;;;;;;;;;;;;;;;;;6246682;28;20284;-82
2022/06/25 08:35:24;;;;;;;;;;;;;;;;;;6231488;28;19913;-82
2022/06/25 08:38:24;;;;;;;;;;;;;;;;;;6250561;28;19920;-83
2022/06/25 08:41:25;;;;;;;;;;;;;;;;;;6246420;28;19965;-82
2022/06/25 08:44:25;;;;;;;;;;;;;;;;;;6250350;28;20014;-82
2022/06/25 08:47:25;;;;;;;;;;;;;;;;;;6246258;28;19909;-83
2022/06/25 08:50:25;;;;;;;;;;;;;;;;;;6244441;28;20019;-83
2022/06/25 08:53:25;;;;;;;;;;;;;;;;;;6245337;28;19950;-83
2022/06/25 08:56:25;;;;;;;;;;;;;;;;;;6248892;28;19917;-83
2022/06/25 08:59:25;;;;;;;;;;;;;;;;;;6248070;28;19943;-83
2022/06/25 09:02:26;;;;;;;;;;;;;;;;;;6244952;28;19909;-83
2022/06/25 09:05:26;;;;;;;;;;;;;;;;;;6248501;28;19913;-83
2022/06/25 09:08:27;;;;;;;;;;;;;;;;;;6250053;28;20055;-83
2022/06/25 09:11:27;;;;;;;;;;;;;;;;;;6245361;28;19913;-83
2022/06/25 09:14:28;;;;;;;;;;;;;;;;;;6254197;28;19949;-83
2022/06/25 09:17:28;;;;;;;;;;;;;;;;;;6257551;28;19909;-83
2022/06/25 09:20:31;;;;;;;;;;;;;;;;;;6252748;28;20668;-83
2022/06/25 09:23:32;;;;;;;;;;;;;;;;;;6248491;28;19964;-83
2022/06/25 09:26:32;;;;;;;;;;;;;;;;;;6248448;28;19988;-82
2022/06/25 09:29:32;;;;;;;;;;;;;;;;;;6225797;28;20284;-83
2022/06/25 09:32:32;;;;;;;;;;;;;;;;;;6236966;28;20008;-83
2022/06/25 09:35:32;;;;;;;;;;;;;;;;;;6253124;28;19925;-82
2022/06/25 09:38:32;;;;;;;;;;;;;;;;;;6259286;28;19916;-82
2022/06/25 09:41:32;;;;;;;;;;;;;;;;;;6249250;28;19913;-84
2022/06/25 09:44:32;;;;;;;;;;;;;;;;;;6236113;28;19995;-84
2022/06/25 09:47:32;;;;;;;;;;;;;;;;;;6256069;28;20281;-83
2022/06/25 09:50:33;;;;;;;;;;;;;;;;;;6257802;28;19984;-83
2022/06/25 09:53:33;;;;;;;;;;;;;;;;;;6262636;28;20506;-83
2022/06/25 09:56:33;;;;;;;;;;;;;;;;;;6263242;28;19909;-83
2022/06/25 09:59:34;;;;;;;;;;;;;;;;;;6242122;28;20098;-84
2022/06/25 10:02:34;;;;;;;;;;;;;;;;;;6254592;28;19943;-84
2022/06/25 10:05:34;;;;;;;;;;;;;;;;;;6252751;28;19952;-83
2022/06/25 10:08:34;;;;;;;;;;;;;;;;;;6247840;28;19956;-83
2022/06/25 10:11:34;;;;;;;;;;;;;;;;;;6232671;28;20027;-83
2022/06/25 10:14:34;;;;;;;;;;;;;;;;;;6252484;28;19921;-83
2022/06/25 10:17:35;;;;;;;;;;;;;;;;;;6228811;28;19921;-83
2022/06/25 10:20:35;;;;;;;;;;;;;;;;;;6250915;28;20356;-83
2022/06/25 10:23:35;;;;;;;;;;;;;;;;;;6246300;28;20399;-81
2022/06/25 10:26:35;;;;;;;;;;;;;;;;;;6247090;28;19917;-83
2022/06/25 10:29:36;;;;;;;;;;;;;;;;;;6253252;28;20007;-83
2022/06/25 10:32:36;;;;;;;;;;;;;;;;;;6251767;28;19909;-83
2022/06/25 10:35:36;;;;;;;;;;;;;;;;;;6257932;28;19909;-83
2022/06/25 10:38:36;;;;;;;;;;;;;;;;;;6254216;28;19924;-83
2022/06/25 10:44:55;;;;;;;;;;;;;;;;;;6254684;28;19921;-82
2022/06/25 10:47:58;;;;;;;;;;;;;;;;;;6251121;28;19967;-83
2022/06/25 10:50:59;;;;;;;;;;;;;;;;;;6254479;28;20434;-84
2022/06/25 10:53:59;;;;;;;;;;;;;;;;;;6257058;28;19913;-83
2022/06/25 10:57:00;;;;;;;;;;;;;;;;;;6249594;28;20016;-83
2022/06/25 11:00:00;;;;;;;;;;;;;;;;;;6238080;28;19974;-83
2022/06/25 11:03:00;;;;;;;;;;;;;;;;;;6230990;28;19921;-83
2022/06/25 11:06:01;;;;;;;;;;;;;;;;;;6251465;28;20003;-83
2022/06/25 11:09:03;;;;;;;;;;;;;;;;;;6242195;28;20196;-83
2022/06/25 11:12:03;;;;;;;;;;;;;;;;;;6254764;28;19920;-83
2022/06/25 11:15:03;;;;;;;;;;;;;;;;;;6225294;28;20067;-83
2022/06/25 11:18:03;;;;;;;;;;;;;;;;;;6249756;28;19970;-83
2022/06/25 11:21:03;;;;;;;;;;;;;;;;;;6242330;28;19921;-83
2022/06/25 11:24:03;;;;;;;;;;;;;;;;;;6244385;28;19929;-83
2022/06/25 11:30:23;;;;;;;;;;;;;;;;;;6261140;28;19908;-83
2022/06/25 11:33:23;;;;;;;;;;;;;;;;;;6262312;28;19935;-83
2022/06/25 11:36:24;;;;;;;;;;;;;;;;;;6259251;28;19924;-83
2022/06/25 11:39:24;;;;;;;;;;;;;;;;;;6253277;28;19909;-83
2022/06/25 11:42:24;;;;;;;;;;;;;;;;;;6266663;28;19939;-83
2022/06/25 11:45:24;;;;;;;;;;;;;;;;;;6250073;28;19917;-82
2022/06/25 11:48:24;;;;;;;;;;;;;;;;;;6273473;28;19897;-83
2022/06/25 11:51:24;;;;;;;;;;;;;;;;;;6261121;28;19909;-83
2022/06/25 11:54:25;;;;;;;;;;;;;;;;;;6258863;28;19901;-83
2022/06/25 11:57:25;;;;;;;;;;;;;;;;;;6256799;28;19901;-83
2022/06/25 12:00:25;;;;;;;;;;;;;;;;;;6267223;28;19909;-82
2022/06/25 12:03:25;;;;;;;;;;;;;;;;;;6269446;28;20048;-84
2022/06/25 12:06:25;;;;;;;;;;;;;;;;;;6252219;28;19910;-83
2022/06/25 12:09:25;;;;;;;;;;;;;;;;;;6270287;28;19904;-83
2022/06/25 12:12:26;;;;;;;;;;;;;;;;;;6268021;28;19924;-83
2022/06/25 12:15:26;;;;;;;;;;;;;;;;;;6259674;28;19920;-83
2022/06/25 12:18:26;;;;;;;;;;;;;;;;;;6254611;28;19913;-83
2022/06/25 12:21:26;;;;;;;;;;;;;;;;;;6261090;28;19920;-83
2022/06/25 12:24:26;;;;;;;;;;;;;;;;;;6268390;28;19939;-82
2022/06/25 12:27:26;;;;;;;;;;;;;;;;;;6262240;28;19905;-82
2022/06/25 12:30:27;;;;;;;;;;;;;;;;;;6268910;28;19909;-82
2022/06/25 12:33:27;;;;;;;;;;;;;;;;;;6271542;28;19940;-82
2022/06/25 12:36:27;;;;;;;;;;;;;;;;;;6269768;28;19924;-82
2022/06/25 12:39:27;;;;;;;;;;;;;;;;;;6252102;28;19897;-81
2022/06/25 12:42:33;;;;;;;;;;;;;;;;;;6269611;28;19909;-81
2022/06/25 12:45:33;;;;;;;;;;;;;;;;;;6274802;28;19990;-83
2022/06/25 12:48:33;;;;;;;;;;;;;;;;;;6259468;28;19944;-82
2022/06/25 12:51:33;;;;;;;;;;;;;;;;;;6250478;28;19904;-83
2022/06/25 12:54:33;;;;;;;;;;;;;;;;;;6256858;28;19976;-82
2022/06/25 12:57:33;;;;;;;;;;;;;;;;;;6262532;28;20303;-82
2022/06/25 13:00:33;;;;;;;;;;;;;;;;;;6271050;28;20500;-82
2022/06/25 13:03:33;;;;;;;;;;;;;;;;;;6257326;28;20192;-82
2022/06/25 13:06:34;;;;;;;;;;;;;;;;;;6270288;28;19913;-82
2022/06/25 13:09:34;;;;;;;;;;;;;;;;;;6272711;28;19915;-82
2022/06/25 13:12:34;;;;;;;;;;;;;;;;;;6268592;28;19976;-83
2022/06/25 13:15:35;;;;;;;;;;;;;;;;;;6309318;22;19929;-82
2022/06/25 13:18:35;;;;;;;;;;;;;;;;;;6302591;28;19919;-83
2022/06/25 13:21:35;;;;;;;;;;;;;;;;;;6295055;28;19972;-81
2022/06/25 13:24:36;;;;;;;;;;;;;;;;;;6292651;28;19921;-81
2022/06/25 13:27:36;;;;;;;;;;;;;;;;;;6289597;28;19921;-81
2022/06/25 13:30:37;;;;;;;;;;;;;;;;;;6281044;28;19909;-81
2022/06/25 13:33:37;;;;;;;;;;;;;;;;;;6285114;28;19963;-81
2022/06/25 13:36:37;;;;;;;;;;;;;;;;;;6300967;28;19931;-81
2022/06/25 13:39:37;;;;;;;;;;;;;;;;;;6293105;28;20284;-83
2022/06/25 13:42:38;;;;;;;;;;;;;;;;;;6304046;28;19948;-83
2022/06/25 13:45:38;;;;;;;;;;;;;;;;;;6293774;28;19954;-83
2022/06/25 13:48:38;;;;;;;;;;;;;;;;;;6292263;28;20471;-83
2022/06/25 13:51:38;;;;;;;;;;;;;;;;;;6294192;28;19908;-82
2022/06/25 13:54:38;;;;;;;;;;;;;;;;;;6299572;28;19897;-83
2022/06/25 13:57:39;;;;;;;;;;;;;;;;;;6293058;28;19917;-82
2022/06/25 14:00:39;;;;;;;;;;;;;;;;;;6296934;28;19897;-82
2022/06/25 14:03:40;;;;;;;;;;;;;;;;;;6300552;28;19909;-82
2022/06/25 14:06:42;;;;;;;;;;;;;;;;;;6297011;28;19919;-82
2022/06/25 14:09:42;;;;;;;;;;;;;;;;;;6300028;28;19920;-83
2022/06/25 14:12:42;;;;;;;;;;;;;;;;;;6291324;28;19912;-83
2022/06/25 14:15:42;;;;;;;;;;;;;;;;;;6267317;28;19925;-83
2022/06/25 14:18:42;;;;;;;;;;;;;;;;;;6268161;28;19919;-82
2022/06/25 14:21:42;;;;;;;;;;;;;;;;;;6267627;28;19913;-83
2022/06/25 14:28:03;;;;;;;;;;;;;;;;;;6269462;28;19955;-82
2022/06/25 14:31:04;;;;;;;;;;;;;;;;;;6273340;28;19960;-83
2022/06/25 14:34:04;;;;;;;;;;;;;;;;;;6270717;28;19900;-82
2022/06/25 14:43:42;;;;;;;;;;;;;;;;;;6273742;28;19901;-82
2022/06/25 14:46:42;;;;;;;;;;;;;;;;;;6261991;23;20506;-86
2022/06/25 14:49:42;;;;;;;;;;;;;;;;;;6239853;28;19913;-86
2022/06/25 14:52:42;;;;;;;;;;;;;;;;;;6241307;28;19940;-86
2022/06/25 14:55:42;;;;;;;;;;;;;;;;;;6240785;28;19971;-86
2022/06/25 14:58:43;;;;;;;;;;;;;;;;;;6240827;28;19920;-86
2022/06/25 15:01:43;;;;;;;;;;;;;;;;;;6238390;28;20291;-86
2022/06/25 15:04:43;;;;;;;;;;;;;;;;;;6241454;28;19913;-86
2022/06/25 15:07:43;;;;;;;;;;;;;;;;;;6232314;28;19955;-86
2022/06/25 15:10:43;;;;;;;;;;;;;;;;;;6240245;28;20229;-86
2022/06/25 15:13:43;;;;;;;;;;;;;;;;;;6240906;28;19913;-86
2022/06/25 15:16:43;;;;;;;;;;;;;;;;;;6241005;28;20380;-86
2022/06/25 15:19:43;;;;;;;;;;;;;;;;;;6236479;28;19921;-86
2022/06/25 15:22:44;;;;;;;;;;;;;;;;;;6233202;28;20297;-86
2022/06/25 15:25:44;;;;;;;;;;;;;;;;;;6242859;28;19943;-85
2022/06/25 15:28:44;;;;;;;;;;;;;;;;;;6242774;28;19913;-86
2022/06/25 15:31:44;;;;;;;;;;;;;;;;;;6237772;28;19920;-86
2022/06/25 15:34:44;;;;;;;;;;;;;;;;;;6234520;28;19909;-85
2022/06/25 15:37:44;;;;;;;;;;;;;;;;;;6238986;28;19924;-85
2022/06/25 15:40:44;;;;;;;;;;;;;;;;;;6247518;28;19909;-86
2022/06/25 15:43:44;;;;;;;;;;;;;;;;;;6253378;28;19911;-86
2022/06/25 15:46:45;;;;;;;;;;;;;;;;;;6251942;28;19928;-86
2022/06/25 15:49:45;;;;;;;;;;;;;;;;;;6251665;28;19918;-86
2022/06/25 15:52:45;;;;;;;;;;;;;;;;;;6251843;28;19913;-85
2022/06/25 15:55:45;;;;;;;;;;;;;;;;;;6249682;28;19920;-86
2022/06/25 16:02:04;;;;;;;;;;;;;;;;;;6249984;28;19945;-85
2022/06/25 16:05:04;;;;;;;;;;;;;;;;;;6241523;28;19920;-85
2022/06/25 16:08:04;;;;;;;;;;;;;;;;;;6241810;28;19968;-85
2022/06/25 16:11:31;;;;;;;;;;;;;;;;;;6236670;28;20140;-87
2022/06/25 16:14:25;;;;;;;;;;;;;;;;;;6236936;28;19949;-87
2022/06/25 16:17:26;;;;;;;;;;;;;;;;;;6229841;28;19909;-88
2022/06/25 16:20:26;;;;;;;;;;;;;;;;;;6236228;28;20563;-89
2022/06/25 16:23:26;;;;;;;;;;;;;;;;;;6235006;28;19994;-89
2022/06/25 16:26:26;;;;;;;;;;;;;;;;;;6234408;28;19909;-88
2022/06/25 16:29:26;;;;;;;;;;;;;;;;;;6231324;28;19960;-88
2022/06/25 16:32:26;;;;;;;;;;;;;;;;;;6234546;28;20353;-88
2022/06/25 16:35:26;;;;;;;;;;;;;;;;;;6235927;28;19948;-88
2022/06/25 16:38:27;;;;;;;;;;;;;;;;;;6235481;28;19996;-88
2022/06/25 16:41:27;;;;;;;;;;;;;;;;;;6233072;28;19913;-88
2022/06/25 16:44:27;;;;;;;;;;;;;;;;;;6230329;28;21301;-87
2022/06/25 16:47:27;;;;;;;;;;;;;;;;;;6225509;28;19925;-87
2022/06/25 16:50:27;;;;;;;;;;;;;;;;;;6237474;28;19917;-87
2022/06/25 16:53:27;;;;;;;;;;;;;;;;;;6240648;28;19913;-86
2022/06/25 16:56:27;;;;;;;;;;;;;;;;;;6234369;28;19970;-86
2022/06/25 16:59:29;;;;;;;;;;;;;;;;;;6239448;28;19913;-86
2022/06/25 17:02:30;;;;;;;;;;;;;;;;;;6238387;28;20272;-87
2022/06/25 17:05:30;;;;;;;;;;;;;;;;;;6238966;28;20277;-87
2022/06/25 17:08:30;;;;;;;;;;;;;;;;;;6240385;28;19959;-87
2022/06/25 17:11:30;;;;;;;;;;;;;;;;;;6248091;28;19944;-87
2022/06/25 17:14:30;;;;;;;;;;;;;;;;;;6240920;28;19920;-87
2022/06/25 17:17:31;;;;;;;;;;;;;;;;;;6236017;28;20000;-87
2022/06/25 17:20:31;;;;;;;;;;;;;;;;;;6235724;28;19921;-87
2022/06/25 17:23:31;;;;;;;;;;;;;;;;;;6236041;28;20243;-88
2022/06/25 17:26:31;;;;;;;;;;;;;;;;;;6230334;28;20331;-88
2022/06/25 17:29:31;;;;;;;;;;;;;;;;;;6235553;28;20438;-87
2022/06/25 17:32:31;;;;;;;;;;;;;;;;;;6239098;28;20379;-87
2022/06/25 17:35:31;;;;;;;;;;;;;;;;;;6237897;28;20528;-86
2022/06/25 17:38:31;;;;;;;;;;;;;;;;;;6236616;28;20051;-86
2022/06/25 17:41:31;;;;;;;;;;;;;;;;;;6233022;28;19921;-87
2022/06/25 17:44:32;;;;;;;;;;;;;;;;;;6241648;28;19944;-87
2022/06/25 17:47:32;;;;;;;;;;;;;;;;;;6243162;28;19928;-86
2022/06/25 17:50:32;;;;;;;;;;;;;;;;;;6241516;28;20302;-86
2022/06/25 17:53:32;;;;;;;;;;;;;;;;;;6247017;28;19916;-86
2022/06/25 17:56:32;;;;;;;;;;;;;;;;;;6251723;28;19909;-86
2022/06/25 17:59:32;;;;;;;;;;;;;;;;;;6245820;28;19932;-85
2022/06/25 18:02:32;;;;;;;;;;;;;;;;;;6249239;28;19940;-85
2022/06/25 18:05:32;;;;;;;;;;;;;;;;;;6239017;28;19965;-85
2022/06/25 18:08:32;;;;;;;;;;;;;;;;;;6228417;28;19921;-86
2022/06/25 18:11:33;;;;;;;;;;;;;;;;;;6240293;28;19917;-86
2022/06/25 18:14:33;;;;;;;;;;;;;;;;;;6243794;28;20333;-86
2022/06/25 18:17:33;;;;;;;;;;;;;;;;;;6241282;28;19913;-86
2022/06/25 18:20:33;;;;;;;;;;;;;;;;;;6244992;28;20442;-86
2022/06/25 18:23:33;;;;;;;;;;;;;;;;;;6239864;28;20380;-85
2022/06/25 18:26:34;;;;;;;;;;;;;;;;;;6230160;28;19943;-85
2022/06/25 18:29:34;;;;;;;;;;;;;;;;;;6246647;28;19942;-85
2022/06/25 18:32:34;;;;;;;;;;;;;;;;;;6230015;28;19972;-85
2022/06/25 18:35:34;;;;;;;;;;;;;;;;;;6248786;28;20277;-86
2022/06/25 18:38:34;;;;;;;;;;;;;;;;;;6250831;28;19917;-86
2022/06/25 18:41:34;;;;;;;;;;;;;;;;;;6242989;28;19913;-85
2022/06/25 18:44:34;;;;;;;;;;;;;;;;;;6256128;28;19921;-86
2022/06/25 18:47:35;;;;;;;;;;;;;;;;;;6256700;28;19928;-86
2022/06/25 18:50:35;;;;;;;;;;;;;;;;;;6247057;28;19917;-86
2022/06/25 18:53:35;;;;;;;;;;;;;;;;;;6237176;28;19948;-87
2022/06/25 18:56:35;;;;;;;;;;;;;;;;;;6233598;28;20361;-88
2022/06/25 18:59:35;;;;;;;;;;;;;;;;;;6228411;28;19921;-87
2022/06/25 19:02:35;;;;;;;;;;;;;;;;;;6232220;28;19913;-87
2022/06/25 19:05:35;;;;;;;;;;;;;;;;;;6228495;28;19925;-87
2022/06/25 19:08:35;;;;;;;;;;;;;;;;;;6231138;28;19921;-87
2022/06/25 19:11:35;;;;;;;;;;;;;;;;;;6234064;28;20592;-87
2022/06/25 19:14:36;;;;;;;;;;;;;;;;;;6234866;28;19913;-87
2022/06/25 19:17:36;;;;;;;;;;;;;;;;;;6235402;28;19909;-87
2022/06/25 19:20:36;;;;;;;;;;;;;;;;;;6230226;28;20315;-87
2022/06/25 19:23:36;;;;;;;;;;;;;;;;;;6232721;28;19968;-87
2022/06/25 19:26:37;;;;;;;;;;;;;;;;;;6228874;28;19920;-87
2022/06/25 19:29:37;;;;;;;;;;;;;;;;;;6236869;28;19909;-87
2022/06/25 19:32:37;;;;;;;;;;;;;;;;;;6234881;28;19913;-87
2022/06/25 19:35:37;;;;;;;;;;;;;;;;;;6235087;28;19941;-87
2022/06/25 19:38:37;;;;;;;;;;;;;;;;;;6236840;28;19909;-87
2022/06/25 19:41:37;;;;;;;;;;;;;;;;;;6234982;28;19923;-87
2022/06/25 19:44:37;;;;;;;;;;;;;;;;;;6236317;28;20373;-87
2022/06/25 19:47:37;;;;;;;;;;;;;;;;;;6237154;28;19978;-87
2022/06/25 19:50:37;;;;;;;;;;;;;;;;;;6236827;28;19909;-87
2022/06/25 19:53:38;;;;;;;;;;;;;;;;;;6235872;28;19909;-87
2022/06/25 19:56:38;;;;;;;;;;;;;;;;;;6235866;28;19909;-87
2022/06/25 19:59:38;;;;;;;;;;;;;;;;;;6235335;28;20007;-87
2022/06/25 20:02:38;;;;;;;;;;;;;;;;;;6236455;28;19921;-87
2022/06/25 20:05:38;;;;;;;;;;;;;;;;;;6235925;28;19971;-87
2022/06/25 20:08:38;;;;;;;;;;;;;;;;;;6235228;28;19913;-87
2022/06/25 20:11:38;;;;;;;;;;;;;;;;;;6237621;28;20411;-87
2022/06/25 20:14:39;;;;;;;;;;;;;;;;;;6236021;28;19917;-87
2022/06/25 20:17:39;;;;;;;;;;;;;;;;;;6234135;28;20373;-87
2022/06/25 20:20:39;;;;;;;;;;;;;;;;;;6229785;28;20206;-87
2022/06/25 20:23:39;;;;;;;;;;;;;;;;;;6237405;28;20365;-87
2022/06/25 20:26:39;;;;;;;;;;;;;;;;;;6236214;28;19931;-87
2022/06/25 20:29:39;;;;;;;;;;;;;;;;;;6234151;28;20446;-87
2022/06/25 20:32:39;;;;;;;;;;;;;;;;;;6234144;28;20340;-87
2022/06/25 20:35:39;;;;;;;;;;;;;;;;;;6236522;28;19913;-87
2022/06/25 20:38:41;;;;;;;;;;;;;;;;;;6235069;28;19920;-87
2022/06/25 20:41:41;;;;;;;;;;;;;;;;;;6234523;28;20044;-87
2022/06/25 20:44:42;;;;;;;;;;;;;;;;;;6235894;28;19921;-87
2022/06/25 20:47:42;;;;;;;;;;;;;;;;;;6235580;28;20355;-87
2022/06/25 20:50:42;;;;;;;;;;;;;;;;;;6226645;28;20277;-87
2022/06/25 20:53:42;;;;;;;;;;;;;;;;;;6229856;28;19924;-87
2022/06/25 20:56:42;;;;;;;;;;;;;;;;;;6231450;28;19914;-87
2022/06/25 20:59:42;;;;;;;;;;;;;;;;;;6226333;28;20219;-87